Willow Springs, IL (60480)

2:25 AM CST en Febrero 07, 2016 (GMT -0600)
Willow Springs | | Change Station
CLOSE
Current Station
Estación meteorológica personal
Location: Willow Springs, IL
Altura: 630 ft
Estaciones meteorológicas cercanas

Alt 630 ft 41.73 °N, 87.88 °W | Updated 12 seconds ago

Muy nublado
Muy nublado
34.9 ° F
Sensación térmica 32 ° F
N
3.5
Viento Variable Viento desde Sur
Gusts 3.5 mph

Hoy
Alta -- | Baja -- ° F
--% Posibilidad de precipitaciones
Ayer
Alta -- | Baja -- ° F
Precip. -- pul
Presión 30.04 pul
Visibilidad 10.0 Millas
Nubes Muy nublado 12000 ft
Vientos helados 32 ° F
Punto de rocío 30 ° F
Humedad 81%
Precipitaciones 0.00 pul
Espesor de la nieve No disponible.
6:57 AM 5:14 PM
Creciente menguante, 2% visible
METAR KMDW 070753Z 20007KT 10SM BKN120 02/M02 A3002 RMK AO2 SLP173 T00221022
Presión 30.04 pul
Visibilidad 10.0 Millas
Nubes Muy nublado 12000 ft
Vientos helados 32 ° F
Punto de rocío 30 ° F
Humedad 81%
Precipitaciones 0.00 pul
Espesor de la nieve No disponible.
6:57 AM 5:14 PM
Creciente menguante, 2% visible
METAR KMDW 070753Z 20007KT 10SM BKN120 02/M02 A3002 RMK AO2 SLP173 T00221022

10-Day Weather Forecast

Almanac

Astronomía

Feb. 07, 2016 Salida Puesta
Hora real
Crepúsculo civil
Crepúsculo náutico
Crepúsculo astronómico
Luna
Horas de luz
Horas de luz
Tomorrow will be .
, % of the Moon is Illuminated

Extremos de hoy

Máximos del estado Bajos del estado

Community

WunderPhotos

Upload Photos

1,891,171 ¡fotos cargadas!

WunderBlog® & News

Nearby

Calidad del aire

  Calidad del aire Índice AQ Contaminante
Not available.

Grosos de nieve

Estación Profundido Altura

Actividad de terremotos

Ciudad Distance Mag. Tiempo y dato
Magnitud mínima muestra es 2,5.

Temperaturas de aguas costeras

Lugar Temperatura

Stations

Estaciones meteorológicas cercanas

Ubicación de la estación Temp. Vientos helados Punto de rocío Humedad Viento Precip. Alt Actualizado Tipo
                   

Watches & Warnings

There are currently no watches in effect.